createdAt,value
2019-05-06T00:02:13.901Z,12.40
2019-05-06T00:04:38.327Z,6.33
2019-05-06T00:07:04.261Z,7.07
2019-05-06T00:09:28.959Z,9.60
2019-05-06T00:11:54.366Z,11.73
2019-05-06T00:14:19.146Z,7.40
2019-05-06T00:16:44.078Z,12.40
2019-05-06T00:19:08.660Z,14.13
2019-05-06T00:21:35.261Z,10.33
2019-05-06T00:23:59.468Z,8.80
2019-05-06T00:26:28.594Z,8.53
2019-05-06T00:28:54.772Z,9.60
2019-05-06T00:31:21.013Z,6.57
2019-05-06T00:33:45.618Z,8.57
2019-05-06T00:36:10.144Z,8.60
2019-05-06T00:38:35.356Z,9.57
2019-05-06T00:41:03.900Z,8.73
2019-05-06T00:43:27.693Z,9.67
2019-05-06T00:45:53.669Z,10.80
2019-05-06T00:48:18.366Z,10.20
2019-05-06T00:50:44.139Z,9.13
2019-05-06T00:53:10.304Z,7.83
2019-05-06T00:55:34.911Z,9.90
2019-05-06T00:57:59.428Z,9.23
2019-05-06T01:00:25.913Z,8.77
2019-05-06T01:02:50.458Z,10.57
2019-05-06T01:05:15.758Z,9.10
2019-05-06T01:07:40.216Z,10.40
2019-05-06T01:10:06.055Z,8.17
2019-05-06T01:12:30.574Z,10.17
2019-05-06T01:14:56.673Z,9.00
2019-05-06T01:17:21.124Z,7.87
2019-05-06T01:19:46.561Z,12.23
2019-05-06T01:22:11.037Z,15.97
2019-05-06T01:24:35.571Z,9.17
2019-05-06T01:27:00.086Z,15.40
2019-05-06T01:29:24.634Z,9.87
2019-05-06T01:31:49.173Z,13.43
2019-05-06T01:34:13.874Z,10.87
2019-05-06T01:36:38.337Z,8.43
2019-05-06T01:39:16.627Z,10.47
2019-05-06T01:41:53.663Z,10.63
2019-05-06T01:44:18.443Z,12.00
2019-05-06T01:46:44.725Z,8.07
2019-05-06T01:49:09.315Z,10.23
2019-05-06T01:51:34.849Z,9.77
2019-05-06T01:53:59.521Z,10.10
2019-05-06T01:56:24.264Z,8.80
2019-05-06T01:58:49.052Z,12.30
2019-05-06T02:01:14.739Z,9.83
2019-05-06T02:03:39.511Z,9.33
2019-05-06T02:06:04.893Z,15.47
2019-05-06T02:08:29.519Z,12.20
2019-05-06T02:10:54.512Z,11.53
2019-05-06T02:13:19.307Z,7.20
2019-05-06T02:15:44.927Z,12.07
2019-05-06T02:18:09.425Z,8.70
2019-05-06T02:20:35.353Z,9.77
2019-05-06T02:23:01.451Z,9.40
2019-05-06T02:25:27.550Z,11.67
2019-05-06T02:27:54.027Z,10.20
2019-05-06T02:30:25.895Z,9.40
2019-05-06T02:32:55.640Z,10.90
2019-05-06T02:35:26.262Z,12.07
2019-05-06T02:37:51.347Z,9.97
2019-05-06T02:40:25.005Z,6.97
2019-05-06T02:42:47.732Z,10.80
2019-05-06T02:45:12.829Z,11.63
2019-05-06T02:47:38.933Z,9.87
2019-05-06T02:50:05.491Z,12.30
2019-05-06T02:52:32.805Z,11.17
2019-05-06T02:54:56.397Z,7.07
2019-05-06T02:57:23.526Z,10.03
2019-05-06T02:59:47.083Z,9.07
2019-05-06T03:02:14.094Z,10.50
2019-05-06T03:04:37.806Z,10.80
2019-05-06T03:07:03.665Z,9.00
2019-05-06T03:09:28.642Z,10.60
2019-05-06T03:11:54.196Z,12.57
2019-05-06T03:14:18.969Z,11.33
2019-05-06T03:16:44.095Z,11.50
2019-05-06T03:19:08.847Z,15.73
2019-05-06T03:21:51.115Z,10.57
2019-05-06T03:24:17.220Z,13.27
2019-05-06T03:26:43.846Z,12.03
2019-05-06T03:29:07.859Z,14.30
2019-05-06T03:31:36.394Z,8.60
2019-05-06T03:34:17.745Z,15.17
2019-05-06T03:36:33.352Z,9.47
2019-05-06T03:38:53.633Z,11.93
2019-05-06T03:41:18.085Z,12.50
2019-05-06T03:43:43.635Z,9.43
2019-05-06T03:46:09.904Z,11.17
2019-05-06T03:48:36.095Z,9.73
2019-05-06T03:51:00.563Z,12.23
2019-05-06T03:53:27.650Z,12.43
2019-05-06T03:55:54.320Z,15.50
2019-05-06T03:58:26.311Z,14.20
2019-05-06T04:00:48.061Z,10.97
2019-05-06T04:03:14.025Z,13.23
2019-05-06T04:05:38.987Z,10.77
2019-05-06T04:10:48.629Z,11.77
2019-05-06T04:13:13.602Z,12.37
2019-05-06T04:15:54.022Z,9.47
2019-05-06T04:18:20.005Z,13.73
2019-05-06T04:21:08.640Z,13.73
2019-05-06T04:23:33.122Z,10.43
2019-05-06T04:25:59.631Z,15.13
2019-05-06T04:28:28.837Z,16.37
2019-05-06T04:30:54.895Z,10.13
2019-05-06T04:33:20.097Z,11.87
2019-05-06T04:35:44.634Z,14.00
2019-05-06T04:38:10.300Z,14.77
2019-05-06T04:40:34.861Z,14.10
2019-05-06T04:43:00.071Z,15.17
2019-05-06T04:45:24.621Z,12.50
2019-05-06T04:47:49.231Z,13.87
2019-05-06T04:50:14.435Z,10.27
2019-05-06T04:52:39.047Z,10.27
2019-05-06T04:55:04.368Z,12.07
2019-05-06T04:57:28.974Z,13.57
2019-05-06T04:59:54.416Z,11.30
2019-05-06T05:02:19.029Z,11.07
2019-05-06T05:04:43.881Z,16.33
2019-05-06T05:07:08.907Z,13.00
2019-05-06T05:09:33.527Z,12.33
2019-05-06T05:12:02.843Z,13.00
2019-05-06T05:14:44.403Z,13.17
2019-05-06T05:17:22.667Z,14.30
2019-05-06T05:19:47.182Z,10.60
2019-05-06T05:22:12.511Z,16.77
2019-05-06T05:24:37.730Z,15.30
2019-05-06T05:27:03.205Z,13.40
2019-05-06T05:29:28.654Z,11.03
2019-05-06T05:31:53.268Z,10.70
2019-05-06T05:34:17.813Z,10.43
2019-05-06T05:36:42.656Z,10.93
2019-05-06T05:39:07.779Z,16.47
2019-05-06T05:41:33.159Z,11.17
2019-05-06T05:43:59.492Z,11.00
2019-05-06T05:46:24.061Z,13.27
2019-05-06T05:49:05.639Z,13.13
2019-05-06T05:51:32.028Z,13.67
2019-05-06T05:53:56.752Z,15.33
2019-05-06T05:56:24.055Z,10.70
2019-05-06T05:58:47.949Z,15.60
2019-05-06T06:01:12.779Z,14.90
2019-05-06T06:03:37.571Z,11.77
2019-05-06T06:06:03.106Z,13.07
2019-05-06T06:08:28.270Z,10.83
2019-05-06T06:10:54.479Z,12.43
2019-05-06T06:13:19.065Z,10.77
2019-05-06T06:15:45.300Z,10.83
2019-05-06T06:18:29.690Z,9.10
2019-05-06T06:20:56.034Z,9.47
2019-05-06T06:23:23.065Z,12.27
2019-05-06T06:25:47.797Z,10.47
2019-05-06T06:28:12.343Z,11.30
2019-05-06T06:30:44.866Z,9.70
2019-05-06T06:33:09.477Z,10.17
2019-05-06T06:35:35.645Z,10.57
2019-05-06T06:38:07.791Z,10.63
2019-05-06T06:40:32.990Z,14.77
2019-05-06T06:42:59.268Z,10.27
2019-05-06T06:45:23.859Z,8.27
2019-05-06T06:47:48.659Z,9.93
2019-05-06T06:50:13.999Z,9.27
2019-05-06T06:52:39.152Z,8.80
2019-05-06T06:55:06.847Z,11.00
2019-05-06T06:57:49.477Z,11.27
2019-05-06T07:00:16.221Z,7.50
2019-05-06T07:02:55.209Z,8.43
2019-05-06T07:05:28.067Z,12.50
2019-05-06T07:07:52.892Z,12.17
2019-05-06T07:10:35.163Z,12.87
2019-05-06T07:12:59.708Z,10.60
2019-05-06T07:15:24.191Z,9.43
2019-05-06T07:17:49.096Z,7.73
2019-05-06T07:20:18.487Z,11.03
2019-05-06T07:22:42.998Z,9.57
2019-05-06T07:25:08.512Z,10.40
2019-05-06T07:27:32.985Z,7.27
2019-05-06T07:29:57.445Z,7.57
2019-05-06T07:32:23.213Z,6.47
2019-05-06T07:34:47.769Z,7.17
2019-05-06T07:37:12.628Z,7.77
2019-05-06T07:39:37.231Z,6.80
2019-05-06T07:42:03.445Z,9.43
2019-05-06T07:44:35.462Z,8.03
2019-05-06T07:47:03.537Z,5.47
2019-05-06T07:49:27.841Z,7.73
2019-05-06T07:51:52.991Z,9.87
2019-05-06T07:54:17.991Z,5.73
2019-05-06T07:56:42.928Z,8.50
2019-05-06T07:59:07.516Z,5.73
2019-05-06T08:01:33.248Z,8.33
2019-05-06T08:03:57.843Z,8.70
2019-05-06T08:06:22.788Z,7.10
2019-05-06T08:08:47.403Z,7.57
2019-05-06T08:11:12.432Z,4.23
2019-05-06T08:13:37.271Z,7.27
2019-05-06T08:16:02.388Z,9.77
2019-05-06T08:18:26.872Z,8.20
2019-05-06T08:20:52.008Z,5.20
2019-05-06T08:23:18.416Z,5.20
2019-05-06T08:25:44.527Z,6.90
2019-05-06T08:28:09.131Z,7.67
2019-05-06T08:30:33.707Z,5.40
2019-05-06T08:32:58.219Z,6.63
2019-05-06T08:35:22.842Z,3.57
2019-05-06T08:37:48.829Z,4.23
2019-05-06T08:40:13.523Z,9.33
2019-05-06T08:42:38.068Z,5.13
2019-05-06T08:45:02.598Z,5.37
2019-05-06T08:47:27.246Z,6.03
2019-05-06T08:49:59.231Z,8.73
2019-05-06T08:52:24.366Z,4.00
2019-05-06T08:54:52.557Z,4.27
2019-05-06T08:57:16.701Z,3.23
2019-05-06T08:59:42.359Z,3.03
2019-05-06T09:02:07.677Z,6.53
2019-05-06T09:04:32.257Z,4.27
2019-05-06T09:06:56.877Z,5.97
2019-05-06T09:09:22.409Z,4.40
2019-05-06T09:11:47.216Z,6.90
2019-05-06T09:14:13.640Z,8.67
2019-05-06T09:16:38.317Z,5.70
2019-05-06T09:19:04.599Z,5.57
2019-05-06T09:21:29.183Z,10.07
2019-05-06T09:23:53.652Z,5.43
2019-05-06T09:26:22.315Z,5.43
2019-05-06T09:28:52.942Z,6.93
2019-05-06T09:31:18.274Z,6.00
2019-05-06T09:33:44.398Z,6.03
2019-05-06T09:36:08.881Z,4.53
2019-05-06T09:38:33.366Z,5.77
2019-05-06T09:40:58.234Z,4.77
2019-05-06T09:43:22.689Z,2.77
2019-05-06T09:45:47.237Z,6.77
2019-05-06T09:48:13.442Z,4.07
2019-05-06T09:50:45.539Z,5.10
2019-05-06T09:53:09.217Z,5.70
2019-05-06T09:55:38.308Z,4.93
2019-05-06T09:58:07.298Z,3.97
2019-05-06T10:00:33.841Z,3.80
2019-05-06T10:02:58.591Z,9.07
2019-05-06T10:05:23.058Z,5.17
2019-05-06T10:07:47.668Z,5.10
2019-05-06T10:10:12.356Z,2.43
2019-05-06T10:12:36.830Z,3.33
2019-05-06T10:15:03.175Z,4.37
2019-05-06T10:17:27.800Z,4.90
2019-05-06T10:19:52.404Z,4.90
2019-05-06T10:22:16.877Z,6.07
2019-05-06T10:24:43.138Z,5.13
2019-05-06T10:27:08.218Z,4.47
2019-05-06T10:29:34.431Z,5.90
2019-05-06T10:32:09.341Z,4.73
2019-05-06T10:34:33.946Z,3.67
2019-05-06T10:37:18.037Z,5.33
2019-05-06T10:39:35.039Z,4.70
2019-05-06T10:42:13.250Z,4.50
2019-05-06T10:44:47.169Z,4.23
2019-05-06T10:47:12.182Z,5.03
2019-05-06T10:49:36.806Z,3.10
2019-05-06T10:52:05.631Z,3.37
2019-05-06T10:54:31.885Z,4.33
2019-05-06T10:56:58.057Z,5.30
2019-05-06T10:59:22.512Z,3.00
2019-05-06T11:02:05.353Z,5.13
2019-05-06T11:04:30.206Z,3.27
2019-05-06T11:06:54.768Z,5.13
2019-05-06T11:09:19.407Z,2.33
2019-05-06T11:11:43.895Z,3.20
2019-05-06T11:14:08.562Z,2.27
2019-05-06T11:16:33.412Z,6.57
2019-05-06T11:18:58.020Z,4.53
2019-05-06T11:21:22.808Z,5.63
2019-05-06T11:23:47.371Z,4.43
2019-05-06T11:26:13.151Z,2.80
2019-05-06T11:28:42.812Z,2.87
2019-05-06T11:31:09.399Z,4.70
2019-05-06T11:33:38.359Z,3.60
2019-05-06T11:36:04.623Z,4.53
2019-05-06T11:38:29.082Z,4.00
2019-05-06T11:40:53.624Z,5.07
2019-05-06T11:43:18.118Z,5.83
2019-05-06T11:45:42.811Z,3.70
2019-05-06T11:48:07.337Z,4.97
2019-05-06T11:50:33.491Z,2.93
2019-05-06T11:52:58.017Z,5.77
2019-05-06T11:55:31.622Z,4.80
2019-05-06T11:57:48.753Z,2.93
2019-05-06T12:00:15.238Z,4.07
2019-05-06T12:02:42.116Z,4.80
2019-05-06T12:05:06.726Z,3.40
2019-05-06T12:07:33.181Z,2.60
2019-05-06T12:09:57.437Z,4.00
2019-05-06T12:12:23.322Z,3.43
2019-05-06T12:14:47.928Z,3.70
2019-05-06T12:17:12.835Z,3.60
2019-05-06T12:19:37.445Z,5.03
2019-05-06T12:22:02.055Z,5.40
2019-05-06T12:24:26.602Z,4.70
2019-05-06T12:26:52.169Z,4.80
2019-05-06T12:29:16.799Z,4.93
2019-05-06T12:31:42.171Z,4.30
2019-05-06T12:34:07.072Z,6.17
2019-05-06T12:36:32.557Z,3.20
2019-05-06T12:39:19.573Z,6.53
2019-05-06T12:42:01.743Z,4.07
2019-05-06T12:44:26.358Z,6.10
2019-05-06T12:46:59.932Z,3.47
2019-05-06T12:49:24.710Z,4.63
2019-05-06T12:51:49.271Z,4.17
2019-05-06T12:54:13.783Z,4.53
2019-05-06T12:56:38.364Z,4.43
2019-05-06T12:59:02.849Z,5.73
2019-05-06T13:01:27.314Z,5.23
2019-05-06T13:03:52.607Z,3.53
2019-05-06T13:06:17.428Z,3.80
2019-05-06T13:08:56.646Z,5.07
2019-05-06T13:11:08.309Z,5.50
2019-05-06T13:13:33.275Z,6.93
2019-05-06T13:15:57.889Z,6.23
2019-05-06T13:18:23.282Z,5.93
2019-05-06T13:20:50.806Z,4.83
2019-05-06T13:23:28.128Z,4.70
2019-05-06T13:25:52.892Z,5.67
2019-05-06T13:28:19.148Z,4.83
2019-05-06T13:30:43.706Z,4.57
2019-05-06T13:33:13.516Z,4.07
2019-05-06T13:35:38.367Z,3.10
2019-05-06T13:38:02.892Z,5.00
2019-05-06T13:40:27.619Z,4.83
2019-05-06T13:43:13.236Z,5.07
2019-05-06T13:45:41.951Z,4.20
2019-05-06T13:48:07.929Z,3.40
2019-05-06T13:50:34.185Z,5.43
2019-05-06T13:53:09.269Z,5.17
2019-05-06T13:55:26.546Z,4.27
2019-05-06T13:57:52.273Z,3.73
2019-05-06T14:00:17.017Z,4.17
2019-05-06T14:02:48.968Z,3.80
2019-05-06T14:05:13.988Z,3.67
2019-05-06T14:07:38.454Z,4.30
2019-05-06T14:10:03.091Z,3.37
2019-05-06T14:12:27.634Z,4.53
2019-05-06T14:14:52.822Z,3.67
2019-05-06T14:17:17.356Z,4.53
2019-05-06T14:19:42.834Z,5.60
2019-05-06T14:22:07.807Z,5.73
2019-05-06T14:24:32.963Z,3.77
2019-05-06T14:26:59.267Z,3.93
2019-05-06T14:29:25.420Z,3.50
2019-05-06T14:31:53.139Z,6.70
2019-05-06T14:34:17.633Z,5.43
2019-05-06T14:36:43.374Z,5.37
2019-05-06T14:39:09.837Z,6.87
2019-05-06T14:41:34.408Z,4.30
2019-05-06T14:43:58.899Z,4.60
2019-05-06T14:46:23.526Z,3.30
2019-05-06T14:48:48.155Z,2.33
2019-05-06T14:51:13.102Z,2.67
2019-05-06T14:53:37.767Z,1.47
2019-05-06T14:56:13.434Z,1.53
2019-05-06T14:58:37.910Z,1.40
2019-05-06T15:01:03.588Z,1.60
2019-05-06T15:03:28.259Z,1.40
2019-05-06T15:05:52.696Z,1.70
2019-05-06T15:08:17.295Z,1.60
2019-05-06T15:10:42.815Z,2.53
2019-05-06T15:13:07.311Z,4.10
2019-05-06T15:15:32.449Z,1.53
2019-05-06T15:17:56.942Z,1.67
2019-05-06T15:20:22.611Z,1.63
2019-05-06T15:22:47.282Z,1.67
2019-05-06T15:25:12.948Z,1.70
2019-05-06T15:27:37.620Z,2.00
2019-05-06T15:30:06.589Z,2.00
2019-05-06T15:32:32.686Z,2.00
2019-05-06T15:34:58.833Z,2.13
2019-05-06T15:37:33.691Z,2.10
2019-05-06T15:39:56.937Z,3.00
2019-05-06T15:42:22.449Z,2.83
2019-05-06T15:44:47.068Z,1.97
2019-05-06T15:47:13.164Z,2.30
2019-05-06T15:49:38.013Z,3.97
2019-05-06T15:52:03.632Z,3.10
2019-05-06T15:54:28.239Z,2.03
2019-05-06T15:56:53.335Z,2.90
2019-05-06T15:59:17.862Z,2.67
2019-05-06T16:01:43.189Z,2.60
2019-05-06T16:04:07.671Z,2.83
2019-05-06T16:06:33.205Z,2.53
2019-05-06T16:08:57.843Z,3.20
2019-05-06T16:11:22.434Z,2.37
2019-05-06T16:13:46.881Z,2.30
2019-05-06T16:16:11.425Z,2.27
2019-05-06T16:18:35.893Z,3.13
2019-05-06T16:21:02.736Z,3.43
2019-05-06T16:23:36.635Z,2.13
2019-05-06T16:26:02.977Z,3.37
2019-05-06T16:28:30.380Z,1.70
2019-05-06T16:30:54.955Z,2.03
2019-05-06T16:33:19.431Z,2.07
2019-05-06T16:35:43.876Z,2.83
2019-05-06T16:38:08.344Z,3.50
2019-05-06T16:40:33.592Z,3.20
2019-05-06T16:42:58.231Z,3.37
2019-05-06T16:45:23.568Z,2.80
2019-05-06T16:47:48.368Z,3.53
2019-05-06T16:50:16.005Z,2.80
2019-05-06T16:52:44.812Z,2.30
2019-05-06T16:55:12.135Z,8.27
2019-05-06T16:57:36.726Z,4.13
2019-05-06T17:00:02.987Z,3.53
2019-05-06T17:02:29.326Z,2.67
2019-05-06T17:04:55.449Z,2.20
2019-05-06T17:07:22.087Z,2.27
2019-05-06T17:09:46.209Z,3.47
2019-05-06T17:12:12.657Z,3.13
2019-05-06T17:14:37.047Z,3.10
2019-05-06T17:17:03.301Z,2.80
2019-05-06T17:19:27.946Z,2.93
2019-05-06T17:21:52.546Z,4.77
2019-05-06T17:24:17.069Z,3.30
2019-05-06T17:26:42.659Z,3.60
2019-05-06T17:29:14.072Z,3.57
2019-05-06T17:31:39.929Z,2.83
2019-05-06T17:34:09.005Z,4.90
2019-05-06T17:36:38.023Z,4.50
2019-05-06T17:39:02.796Z,3.73
2019-05-06T17:41:41.183Z,3.80
2019-05-06T17:43:53.511Z,2.90
2019-05-06T17:46:19.639Z,2.27
2019-05-06T17:49:03.800Z,2.40
2019-05-06T17:51:42.572Z,2.43
2019-05-06T17:54:07.416Z,2.63
2019-05-06T17:56:32.037Z,3.33
2019-05-06T17:58:57.759Z,3.73
2019-05-06T18:01:41.876Z,3.33
2019-05-06T18:04:08.792Z,3.83
2019-05-06T18:06:34.509Z,4.33
2019-05-06T18:08:59.894Z,2.50
2019-05-06T18:11:26.796Z,6.57
2019-05-06T18:13:56.044Z,3.93
2019-05-06T18:16:22.271Z,3.83
2019-05-06T18:18:46.842Z,2.90
2019-05-06T18:21:12.384Z,2.87
2019-05-06T18:23:36.997Z,3.57
2019-05-06T18:26:03.173Z,3.33
2019-05-06T18:28:27.877Z,2.83
2019-05-06T18:30:52.415Z,4.93
2019-05-06T18:33:16.944Z,3.53
2019-05-06T18:35:42.024Z,3.93
2019-05-06T18:38:06.782Z,3.83
2019-05-06T18:40:33.156Z,3.03
2019-05-06T18:42:57.391Z,6.27
2019-05-06T18:45:22.179Z,4.50
2019-05-06T18:47:46.639Z,3.87
2019-05-06T18:50:12.552Z,2.77
2019-05-06T18:52:37.359Z,3.10
2019-05-06T18:55:01.935Z,3.80
2019-05-06T18:57:26.390Z,3.67
2019-05-06T18:59:53.067Z,3.40
2019-05-06T19:02:17.166Z,3.27
2019-05-06T19:04:46.139Z,3.63
2019-05-06T19:07:16.166Z,4.70
2019-05-06T19:09:38.583Z,5.07
2019-05-06T19:12:03.778Z,5.53
2019-05-06T19:14:28.454Z,4.87
2019-05-06T19:16:55.237Z,4.53
2019-05-06T19:19:19.101Z,2.70
2019-05-06T19:21:43.630Z,2.87
2019-05-06T19:24:08.085Z,4.70
2019-05-06T19:26:32.808Z,3.47
2019-05-06T19:28:57.407Z,3.07
2019-05-06T19:31:22.921Z,4.40
2019-05-06T19:33:47.461Z,3.53
2019-05-06T19:36:12.638Z,4.10
2019-05-06T19:38:37.253Z,4.13
2019-05-06T19:41:02.472Z,4.03
2019-05-06T19:43:28.132Z,5.33
2019-05-06T19:45:53.079Z,3.73
2019-05-06T19:48:17.577Z,4.23
2019-05-06T19:50:42.523Z,3.13
2019-05-06T19:53:07.020Z,3.23
2019-05-06T19:55:31.631Z,4.10
2019-05-06T19:57:56.120Z,4.23
2019-05-06T20:00:22.727Z,6.00
2019-05-06T20:02:47.268Z,3.30
2019-05-06T20:05:25.838Z,6.70
2019-05-06T20:07:54.668Z,3.67
2019-05-06T20:10:36.871Z,5.17
2019-05-06T20:13:05.402Z,4.50
2019-05-06T20:15:33.632Z,6.20
2019-05-06T20:17:58.178Z,5.90
2019-05-06T20:20:22.975Z,4.83
2019-05-06T20:22:47.392Z,3.97
2019-05-06T20:25:12.470Z,5.50
2019-05-06T20:27:37.033Z,5.40
2019-05-06T20:30:03.367Z,6.17
2019-05-06T20:32:27.629Z,7.30
2019-05-06T20:34:52.102Z,5.13
2019-05-06T20:37:16.620Z,5.80
2019-05-06T20:39:43.295Z,4.83
2019-05-06T20:42:07.332Z,6.93
2019-05-06T20:44:32.530Z,5.73
2019-05-06T20:46:57.179Z,6.83
2019-05-06T20:49:21.656Z,8.20
2019-05-06T20:51:46.219Z,6.50
2019-05-06T20:54:12.801Z,5.00
2019-05-06T20:56:37.346Z,5.77
2019-05-06T20:59:02.426Z,6.03
2019-05-06T21:01:27.168Z,5.77
2019-05-06T21:03:52.896Z,7.07
2019-05-06T21:06:18.039Z,8.43
2019-05-06T21:08:42.584Z,6.67
2019-05-06T21:11:07.044Z,5.97
2019-05-06T21:13:35.198Z,6.90
2019-05-06T21:15:57.714Z,7.50
2019-05-06T21:18:22.898Z,6.57
2019-05-06T21:20:47.708Z,6.80
2019-05-06T21:23:12.227Z,5.90
2019-05-06T21:25:36.777Z,7.63
2019-05-06T21:28:02.997Z,7.37
2019-05-06T21:30:27.770Z,7.17
2019-05-06T21:32:52.239Z,6.50
2019-05-06T21:35:16.798Z,6.47
2019-05-06T21:37:42.307Z,9.43
2019-05-06T21:40:07.644Z,8.43
2019-05-06T21:42:32.583Z,9.17
2019-05-06T21:44:57.103Z,7.27
2019-05-06T21:47:21.730Z,7.67
2019-05-06T21:49:46.210Z,7.93
2019-05-06T21:52:12.950Z,9.50
2019-05-06T21:54:36.992Z,7.70
2019-05-06T21:57:02.968Z,7.70
2019-05-06T21:59:27.622Z,8.57
2019-05-06T22:01:52.297Z,7.87
2019-05-06T22:04:16.772Z,8.80
2019-05-06T22:06:42.864Z,8.20
2019-05-06T22:09:07.737Z,9.07
2019-05-06T22:11:32.387Z,8.00
2019-05-06T22:14:00.849Z,8.93
2019-05-06T22:16:23.108Z,8.07
2019-05-06T22:18:47.611Z,8.17
2019-05-06T22:21:16.892Z,8.17
2019-05-06T22:23:49.162Z,10.70
2019-05-06T22:26:16.157Z,8.83
2019-05-06T22:28:39.835Z,8.50
2019-05-06T22:31:04.378Z,11.10
2019-05-06T22:33:28.855Z,9.37
2019-05-06T22:35:54.927Z,8.10
2019-05-06T22:38:19.438Z,8.20
2019-05-06T22:40:43.904Z,9.13
2019-05-06T22:43:08.373Z,11.97
2019-05-06T22:45:33.102Z,8.90
2019-05-06T22:47:57.631Z,10.87
2019-05-06T22:50:22.570Z,10.50
2019-05-06T22:52:47.207Z,8.40
2019-05-06T22:55:13.008Z,9.00
2019-05-06T22:57:37.567Z,10.40
2019-05-06T23:00:03.503Z,9.00
2019-05-06T23:02:32.059Z,9.30
2019-05-06T23:05:04.213Z,10.10
2019-05-06T23:07:26.676Z,11.83
2019-05-06T23:09:52.148Z,9.93
2019-05-06T23:12:16.791Z,11.37
2019-05-06T23:14:41.998Z,10.23
2019-05-06T23:17:06.874Z,11.53
2019-05-06T23:19:31.861Z,10.63
2019-05-06T23:21:56.500Z,8.57
2019-05-06T23:24:22.502Z,11.03
2019-05-06T23:26:47.075Z,10.57
2019-05-06T23:29:12.921Z,9.93
2019-05-06T23:31:37.871Z,9.80
2019-05-06T23:34:04.910Z,11.47
2019-05-06T23:36:32.755Z,10.53
2019-05-06T23:39:35.344Z,10.10
2019-05-06T23:42:36.306Z,9.93
2019-05-06T23:45:36.933Z,9.73
2019-05-06T23:48:37.515Z,11.73
2019-05-06T23:51:38.351Z,11.37
2019-05-06T23:54:39.136Z,11.47
2019-05-06T23:57:03.014Z,10.00
2019-05-06T23:59:27.572Z,11.47
